NCAR-RAP Real-Time Weather Data

Output produced by METARs form (24 January 2022  23:41 UTC)
found at http://weather.rap.ucar.edu/surface/
 
KABI 242252Z 17004KT 10SM FEW120 14/01 A2981 RMK AO2 SLP088 T01390011
KABI 242152Z 23003KT 10SM SCT110 13/02 A2980 RMK AO2 SLP088 T01280022
KABI 242052Z 23005KT 10SM BKN070 OVC095 13/02 A2981 RMK AO2 SLP088 T01330017 56026
KABI 241952Z 29006KT 10SM OVC090 14/01 A2983 RMK AO2 SLP094 T01440006
KABI 241852Z VRB03KT 10SM OVC090 14/01 A2985 RMK AO2 SLP101 T01440011
KABI 241752Z 22007KT 10SM CLR 12/02 A2989 RMK AO2 SLP114 60000 T01170017 10128 20028 58010
KABI 241652Z 20012KT 10SM CLR 12/02 A2991 RMK AO2 SLP123 T01170022
KABI 241552Z 20009KT 10SM BKN110 09/02 A2991 RMK AO2 SLP127 T00890022
KABI 241452Z 19006KT 10SM SCT110 06/02 A2992 RMK AO2 SLP130 60000 T00560022 57001